sensor_id;sensor_type;location;lat;lon;timestamp;temperature;humidity
13458;DHT22;6801;53.018;11.560;2023-04-26T00:00:29;6.80;62.30
13458;DHT22;6801;53.018;11.560;2023-04-26T00:02:57;6.80;62.30
13458;DHT22;6801;53.018;11.560;2023-04-26T00:05:25;6.80;62.60
13458;DHT22;6801;53.018;11.560;2023-04-26T00:07:52;6.80;62.40
13458;DHT22;6801;53.018;11.560;2023-04-26T00:10:19;6.70;62.50
13458;DHT22;6801;53.018;11.560;2023-04-26T00:12:46;6.80;62.70
13458;DHT22;6801;53.018;11.560;2023-04-26T00:15:15;6.70;62.80
13458;DHT22;6801;53.018;11.560;2023-04-26T00:17:41;6.70;62.70
13458;DHT22;6801;53.018;11.560;2023-04-26T00:20:09;6.70;62.60
13458;DHT22;6801;53.018;11.560;2023-04-26T00:22:38;6.70;62.70
13458;DHT22;6801;53.018;11.560;2023-04-26T00:25:05;6.70;62.80
13458;DHT22;6801;53.018;11.560;2023-04-26T00:27:32;6.60;62.80
13458;DHT22;6801;53.018;11.560;2023-04-26T00:29:59;6.60;63.00
13458;DHT22;6801;53.018;11.560;2023-04-26T00:32:29;6.60;62.80
13458;DHT22;6801;53.018;11.560;2023-04-26T00:34:56;6.60;62.80
13458;DHT22;6801;53.018;11.560;2023-04-26T00:37:23;6.60;62.80
13458;DHT22;6801;53.018;11.560;2023-04-26T00:39:50;6.60;63.10
13458;DHT22;6801;53.018;11.560;2023-04-26T00:42:17;6.60;63.10
13458;DHT22;6801;53.018;11.560;2023-04-26T00:44:45;6.60;63.30
13458;DHT22;6801;53.018;11.560;2023-04-26T00:47:12;6.60;63.20
13458;DHT22;6801;53.018;11.560;2023-04-26T00:49:40;6.60;63.20
13458;DHT22;6801;53.018;11.560;2023-04-26T00:52:07;6.60;63.20
13458;DHT22;6801;53.018;11.560;2023-04-26T00:54:34;6.50;63.30
13458;DHT22;6801;53.018;11.560;2023-04-26T00:57:01;6.60;63.30
13458;DHT22;6801;53.018;11.560;2023-04-26T00:59:28;6.50;63.60
13458;DHT22;6801;53.018;11.560;2023-04-26T01:01:57;6.50;63.40
13458;DHT22;6801;53.018;11.560;2023-04-26T01:04:24;6.60;63.50
13458;DHT22;6801;53.018;11.560;2023-04-26T01:06:53;6.50;63.70
13458;DHT22;6801;53.018;11.560;2023-04-26T01:09:21;6.50;63.50
13458;DHT22;6801;53.018;11.560;2023-04-26T01:11:48;6.50;63.90
13458;DHT22;6801;53.018;11.560;2023-04-26T01:14:16;6.50;64.10
13458;DHT22;6801;53.018;11.560;2023-04-26T01:16:43;6.40;64.00
13458;DHT22;6801;53.018;11.560;2023-04-26T01:19:12;6.40;64.00
13458;DHT22;6801;53.018;11.560;2023-04-26T01:21:40;6.40;64.30
13458;DHT22;6801;53.018;11.560;2023-04-26T01:24:10;6.30;64.40
13458;DHT22;6801;53.018;11.560;2023-04-26T01:26:37;6.30;64.40
13458;DHT22;6801;53.018;11.560;2023-04-26T01:29:13;6.30;64.20
13458;DHT22;6801;53.018;11.560;2023-04-26T01:31:40;6.30;64.60
13458;DHT22;6801;53.018;11.560;2023-04-26T01:34:07;6.30;64.40
13458;DHT22;6801;53.018;11.560;2023-04-26T01:36:34;6.20;64.40
13458;DHT22;6801;53.018;11.560;2023-04-26T01:39:01;6.20;64.40
13458;DHT22;6801;53.018;11.560;2023-04-26T01:41:30;6.20;64.30
13458;DHT22;6801;53.018;11.560;2023-04-26T01:43:59;6.20;64.20
13458;DHT22;6801;53.018;11.560;2023-04-26T01:46:27;6.20;64.10
13458;DHT22;6801;53.018;11.560;2023-04-26T01:48:53;6.20;64.10
13458;DHT22;6801;53.018;11.560;2023-04-26T01:51:22;6.20;64.20
13458;DHT22;6801;53.018;11.560;2023-04-26T01:53:49;6.20;64.10
13458;DHT22;6801;53.018;11.560;2023-04-26T01:56:16;6.10;64.20
13458;DHT22;6801;53.018;11.560;2023-04-26T01:58:44;6.20;64.20
13458;DHT22;6801;53.018;11.560;2023-04-26T02:01:11;6.10;64.10
13458;DHT22;6801;53.018;11.560;2023-04-26T02:03:38;6.10;64.00
13458;DHT22;6801;53.018;11.560;2023-04-26T02:06:05;6.10;64.10
13458;DHT22;6801;53.018;11.560;2023-04-26T02:08:32;6.10;64.20
13458;DHT22;6801;53.018;11.560;2023-04-26T02:10:59;6.10;64.10
13458;DHT22;6801;53.018;11.560;2023-04-26T02:13:26;6.00;64.20
13458;DHT22;6801;53.018;11.560;2023-04-26T02:15:54;6.00;64.30
13458;DHT22;6801;53.018;11.560;2023-04-26T02:18:21;6.00;64.30
13458;DHT22;6801;53.018;11.560;2023-04-26T02:20:49;6.00;64.20
13458;DHT22;6801;53.018;11.560;2023-04-26T02:23:16;6.00;64.30
13458;DHT22;6801;53.018;11.560;2023-04-26T02:25:45;6.00;64.30
13458;DHT22;6801;53.018;11.560;2023-04-26T02:28:12;6.00;64.20
13458;DHT22;6801;53.018;11.560;2023-04-26T02:30:39;6.00;64.30
13458;DHT22;6801;53.018;11.560;2023-04-26T02:33:08;6.00;64.30
13458;DHT22;6801;53.018;11.560;2023-04-26T02:35:35;5.90;64.40
13458;DHT22;6801;53.018;11.560;2023-04-26T02:38:03;5.90;64.40
13458;DHT22;6801;53.018;11.560;2023-04-26T02:40:30;5.90;64.50
13458;DHT22;6801;53.018;11.560;2023-04-26T02:42:57;5.80;64.60
13458;DHT22;6801;53.018;11.560;2023-04-26T02:45:24;5.80;64.60
13458;DHT22;6801;53.018;11.560;2023-04-26T02:47:52;5.80;64.70
13458;DHT22;6801;53.018;11.560;2023-04-26T02:50:20;5.80;64.70
13458;DHT22;6801;53.018;11.560;2023-04-26T02:52:48;5.80;64.60
13458;DHT22;6801;53.018;11.560;2023-04-26T02:55:15;5.70;64.70
13458;DHT22;6801;53.018;11.560;2023-04-26T02:57:42;5.70;64.70
13458;DHT22;6801;53.018;11.560;2023-04-26T03:00:10;5.70;64.70
13458;DHT22;6801;53.018;11.560;2023-04-26T03:02:39;5.60;64.70
13458;DHT22;6801;53.018;11.560;2023-04-26T03:05:07;5.60;64.70
13458;DHT22;6801;53.018;11.560;2023-04-26T03:07:36;5.60;65.10
13458;DHT22;6801;53.018;11.560;2023-04-26T03:10:04;5.60;65.40
13458;DHT22;6801;53.018;11.560;2023-04-26T03:12:32;5.60;65.30
13458;DHT22;6801;53.018;11.560;2023-04-26T03:15:00;5.60;65.30
13458;DHT22;6801;53.018;11.560;2023-04-26T03:17:29;5.50;65.30
13458;DHT22;6801;53.018;11.560;2023-04-26T03:19:56;5.60;65.30
13458;DHT22;6801;53.018;11.560;2023-04-26T03:22:23;5.60;65.30
13458;DHT22;6801;53.018;11.560;2023-04-26T03:24:51;5.50;65.30
13458;DHT22;6801;53.018;11.560;2023-04-26T03:27:18;5.50;65.30
13458;DHT22;6801;53.018;11.560;2023-04-26T03:29:45;5.50;65.30
13458;DHT22;6801;53.018;11.560;2023-04-26T03:32:12;5.50;65.50
13458;DHT22;6801;53.018;11.560;2023-04-26T03:34:39;5.50;65.50
13458;DHT22;6801;53.018;11.560;2023-04-26T03:37:06;5.50;65.70
13458;DHT22;6801;53.018;11.560;2023-04-26T03:39:35;5.50;65.70
13458;DHT22;6801;53.018;11.560;2023-04-26T03:42:03;5.40;66.10
13458;DHT22;6801;53.018;11.560;2023-04-26T03:44:32;5.40;65.90
13458;DHT22;6801;53.018;11.560;2023-04-26T03:46:59;5.40;66.30
13458;DHT22;6801;53.018;11.560;2023-04-26T03:49:27;5.40;66.20
13458;DHT22;6801;53.018;11.560;2023-04-26T03:51:54;5.30;66.40
13458;DHT22;6801;53.018;11.560;2023-04-26T03:54:21;5.40;66.60
13458;DHT22;6801;53.018;11.560;2023-04-26T03:56:48;5.40;66.70
13458;DHT22;6801;53.018;11.560;2023-04-26T03:59:18;5.30;66.70
13458;DHT22;6801;53.018;11.560;2023-04-26T04:01:45;5.30;66.70
13458;DHT22;6801;53.018;11.560;2023-04-26T04:04:12;5.30;66.70
13458;DHT22;6801;53.018;11.560;2023-04-26T04:06:40;5.30;66.80
13458;DHT22;6801;53.018;11.560;2023-04-26T04:09:07;5.30;66.90
13458;DHT22;6801;53.018;11.560;2023-04-26T04:11:34;5.30;67.00
13458;DHT22;6801;53.018;11.560;2023-04-26T04:14:01;5.30;67.10
13458;DHT22;6801;53.018;11.560;2023-04-26T04:16:29;5.20;68.40
13458;DHT22;6801;53.018;11.560;2023-04-26T04:18:56;5.20;67.70
13458;DHT22;6801;53.018;11.560;2023-04-26T04:21:23;5.20;67.40
13458;DHT22;6801;53.018;11.560;2023-04-26T04:23:52;5.20;67.40
13458;DHT22;6801;53.018;11.560;2023-04-26T04:26:20;5.20;68.50
13458;DHT22;6801;53.018;11.560;2023-04-26T04:28:47;5.20;67.90
13458;DHT22;6801;53.018;11.560;2023-04-26T04:31:15;5.20;67.90
13458;DHT22;6801;53.018;11.560;2023-04-26T04:33:43;5.10;68.70
13458;DHT22;6801;53.018;11.560;2023-04-26T04:36:11;5.20;68.20
13458;DHT22;6801;53.018;11.560;2023-04-26T04:38:41;5.20;68.10
13458;DHT22;6801;53.018;11.560;2023-04-26T04:41:09;5.20;68.10
13458;DHT22;6801;53.018;11.560;2023-04-26T04:43:37;5.20;67.90
13458;DHT22;6801;53.018;11.560;2023-04-26T04:46:05;5.30;67.80
13458;DHT22;6801;53.018;11.560;2023-04-26T04:48:33;5.30;67.70
13458;DHT22;6801;53.018;11.560;2023-04-26T04:51:01;5.30;67.90
13458;DHT22;6801;53.018;11.560;2023-04-26T04:53:29;5.40;67.80
13458;DHT22;6801;53.018;11.560;2023-04-26T04:55:56;5.40;67.70
13458;DHT22;6801;53.018;11.560;2023-04-26T04:58:24;5.50;67.70
13458;DHT22;6801;53.018;11.560;2023-04-26T05:00:51;5.60;68.00
13458;DHT22;6801;53.018;11.560;2023-04-26T05:03:26;5.60;67.70
13458;DHT22;6801;53.018;11.560;2023-04-26T05:05:55;5.70;67.90
13458;DHT22;6801;53.018;11.560;2023-04-26T05:08:23;5.70;68.00
13458;DHT22;6801;53.018;11.560;2023-04-26T05:10:51;5.80;68.10
13458;DHT22;6801;53.018;11.560;2023-04-26T05:13:18;5.80;68.40
13458;DHT22;6801;53.018;11.560;2023-04-26T05:15:44;5.80;68.60
13458;DHT22;6801;53.018;11.560;2023-04-26T05:18:11;5.80;68.40
13458;DHT22;6801;53.018;11.560;2023-04-26T05:20:38;5.80;68.00
13458;DHT22;6801;53.018;11.560;2023-04-26T05:23:06;5.90;68.00
13458;DHT22;6801;53.018;11.560;2023-04-26T05:25:37;5.90;67.90
13458;DHT22;6801;53.018;11.560;2023-04-26T05:28:24;5.90;67.70
13458;DHT22;6801;53.018;11.560;2023-04-26T05:31:10;5.90;67.90
13458;DHT22;6801;53.018;11.560;2023-04-26T05:33:55;5.90;67.70
13458;DHT22;6801;53.018;11.560;2023-04-26T05:36:29;6.00;67.60
13458;DHT22;6801;53.018;11.560;2023-04-26T05:38:57;6.00;67.50
13458;DHT22;6801;53.018;11.560;2023-04-26T05:41:25;6.00;67.70
13458;DHT22;6801;53.018;11.560;2023-04-26T05:43:53;6.00;67.50
13458;DHT22;6801;53.018;11.560;2023-04-26T05:46:20;6.20;67.60
13458;DHT22;6801;53.018;11.560;2023-04-26T05:48:48;6.20;67.90
13458;DHT22;6801;53.018;11.560;2023-04-26T05:51:15;6.30;67.60
13458;DHT22;6801;53.018;11.560;2023-04-26T05:53:42;6.30;67.40
13458;DHT22;6801;53.018;11.560;2023-04-26T05:56:09;6.50;67.60
13458;DHT22;6801;53.018;11.560;2023-04-26T05:58:37;6.50;67.20
13458;DHT22;6801;53.018;11.560;2023-04-26T06:01:04;6.60;66.90
13458;DHT22;6801;53.018;11.560;2023-04-26T06:03:33;6.60;66.60
13458;DHT22;6801;53.018;11.560;2023-04-26T06:06:00;6.70;66.30
13458;DHT22;6801;53.018;11.560;2023-04-26T06:08:28;6.80;66.50
13458;DHT22;6801;53.018;11.560;2023-04-26T06:10:55;6.80;66.20
13458;DHT22;6801;53.018;11.560;2023-04-26T06:13:22;6.80;66.00
13458;DHT22;6801;53.018;11.560;2023-04-26T06:15:52;6.90;66.00
13458;DHT22;6801;53.018;11.560;2023-04-26T06:18:20;6.90;66.00
13458;DHT22;6801;53.018;11.560;2023-04-26T06:20:47;6.90;66.00
13458;DHT22;6801;53.018;11.560;2023-04-26T06:23:14;6.90;65.80
13458;DHT22;6801;53.018;11.560;2023-04-26T06:25:41;7.00;65.80
13458;DHT22;6801;53.018;11.560;2023-04-26T06:28:11;7.00;65.90
13458;DHT22;6801;53.018;11.560;2023-04-26T06:30:38;7.00;65.80
13458;DHT22;6801;53.018;11.560;2023-04-26T06:33:06;7.00;66.10
13458;DHT22;6801;53.018;11.560;2023-04-26T06:35:38;7.10;65.90
13458;DHT22;6801;53.018;11.560;2023-04-26T06:38:07;7.20;65.80
13458;DHT22;6801;53.018;11.560;2023-04-26T06:40:35;7.20;65.60
13458;DHT22;6801;53.018;11.560;2023-04-26T06:43:02;7.30;65.80
13458;DHT22;6801;53.018;11.560;2023-04-26T06:45:53;7.30;65.50
13458;DHT22;6801;53.018;11.560;2023-04-26T06:48:21;7.40;65.40
13458;DHT22;6801;53.018;11.560;2023-04-26T06:50:48;7.40;65.20
13458;DHT22;6801;53.018;11.560;2023-04-26T06:53:15;7.50;65.10
13458;DHT22;6801;53.018;11.560;2023-04-26T06:55:42;7.60;64.90
13458;DHT22;6801;53.018;11.560;2023-04-26T06:58:09;7.60;64.80
13458;DHT22;6801;53.018;11.560;2023-04-26T07:00:36;7.70;64.90
13458;DHT22;6801;53.018;11.560;2023-04-26T07:03:03;7.70;64.80
13458;DHT22;6801;53.018;11.560;2023-04-26T07:05:31;7.70;64.70
13458;DHT22;6801;53.018;11.560;2023-04-26T07:07:58;7.80;64.70
13458;DHT22;6801;53.018;11.560;2023-04-26T07:10:25;7.80;64.20
13458;DHT22;6801;53.018;11.560;2023-04-26T07:12:52;8.00;64.30
13458;DHT22;6801;53.018;11.560;2023-04-26T07:15:19;8.00;64.20
13458;DHT22;6801;53.018;11.560;2023-04-26T07:17:47;8.00;64.00
13458;DHT22;6801;53.018;11.560;2023-04-26T07:20:14;8.10;63.80
13458;DHT22;6801;53.018;11.560;2023-04-26T07:22:45;8.20;63.70
13458;DHT22;6801;53.018;11.560;2023-04-26T07:25:12;8.30;63.60
13458;DHT22;6801;53.018;11.560;2023-04-26T07:27:40;8.30;63.50
13458;DHT22;6801;53.018;11.560;2023-04-26T07:30:08;8.40;63.20
13458;DHT22;6801;53.018;11.560;2023-04-26T07:32:35;8.40;63.10
13458;DHT22;6801;53.018;11.560;2023-04-26T07:35:05;8.50;62.90
13458;DHT22;6801;53.018;11.560;2023-04-26T07:37:33;8.60;62.50
13458;DHT22;6801;53.018;11.560;2023-04-26T07:40:01;8.60;62.20
13458;DHT22;6801;53.018;11.560;2023-04-26T07:42:29;8.60;62.30
13458;DHT22;6801;53.018;11.560;2023-04-26T07:44:56;8.70;62.20
13458;DHT22;6801;53.018;11.560;2023-04-26T07:47:23;8.70;61.60
13458;DHT22;6801;53.018;11.560;2023-04-26T07:49:52;8.70;61.80
13458;DHT22;6801;53.018;11.560;2023-04-26T07:52:19;8.70;61.40
13458;DHT22;6801;53.018;11.560;2023-04-26T07:54:46;8.70;61.00
13458;DHT22;6801;53.018;11.560;2023-04-26T07:57:14;8.80;61.50
13458;DHT22;6801;53.018;11.560;2023-04-26T07:59:41;8.90;61.40
13458;DHT22;6801;53.018;11.560;2023-04-26T08:02:08;8.90;61.40
13458;DHT22;6801;53.018;11.560;2023-04-26T08:04:36;9.00;60.70
13458;DHT22;6801;53.018;11.560;2023-04-26T08:07:03;9.00;61.00
13458;DHT22;6801;53.018;11.560;2023-04-26T08:09:30;9.00;60.80
13458;DHT22;6801;53.018;11.560;2023-04-26T08:11:57;9.00;60.90
13458;DHT22;6801;53.018;11.560;2023-04-26T08:14:25;9.10;60.30
13458;DHT22;6801;53.018;11.560;2023-04-26T08:16:53;9.10;60.00
13458;DHT22;6801;53.018;11.560;2023-04-26T08:19:20;9.10;59.70
13458;DHT22;6801;53.018;11.560;2023-04-26T08:21:47;9.10;59.90
13458;DHT22;6801;53.018;11.560;2023-04-26T08:24:14;9.10;59.50
13458;DHT22;6801;53.018;11.560;2023-04-26T08:26:41;9.10;59.70
13458;DHT22;6801;53.018;11.560;2023-04-26T08:29:08;9.10;60.00
13458;DHT22;6801;53.018;11.560;2023-04-26T08:31:36;9.10;60.20
13458;DHT22;6801;53.018;11.560;2023-04-26T08:34:03;9.20;60.00
13458;DHT22;6801;53.018;11.560;2023-04-26T08:36:30;9.30;59.50
13458;DHT22;6801;53.018;11.560;2023-04-26T08:38:58;9.30;59.50
13458;DHT22;6801;53.018;11.560;2023-04-26T08:41:25;9.30;59.70
13458;DHT22;6801;53.018;11.560;2023-04-26T08:43:53;9.40;59.40
13458;DHT22;6801;53.018;11.560;2023-04-26T08:46:23;9.40;59.00
13458;DHT22;6801;53.018;11.560;2023-04-26T08:49:12;9.40;58.90
13458;DHT22;6801;53.018;11.560;2023-04-26T08:51:43;9.40;57.50
13458;DHT22;6801;53.018;11.560;2023-04-26T08:54:11;9.30;57.30
13458;DHT22;6801;53.018;11.560;2023-04-26T08:56:38;9.20;57.60
13458;DHT22;6801;53.018;11.560;2023-04-26T08:59:08;9.30;58.30
13458;DHT22;6801;53.018;11.560;2023-04-26T09:01:38;9.30;58.40
13458;DHT22;6801;53.018;11.560;2023-04-26T09:04:07;9.30;58.50
13458;DHT22;6801;53.018;11.560;2023-04-26T09:06:35;9.30;58.10
13458;DHT22;6801;53.018;11.560;2023-04-26T09:09:02;9.40;58.40
13458;DHT22;6801;53.018;11.560;2023-04-26T09:11:51;9.30;58.40
13458;DHT22;6801;53.018;11.560;2023-04-26T09:14:18;9.30;57.10
13458;DHT22;6801;53.018;11.560;2023-04-26T09:16:45;9.40;58.00
13458;DHT22;6801;53.018;11.560;2023-04-26T09:19:13;9.40;57.40
13458;DHT22;6801;53.018;11.560;2023-04-26T09:21:42;9.50;58.00
13458;DHT22;6801;53.018;11.560;2023-04-26T09:24:10;9.60;57.20
13458;DHT22;6801;53.018;11.560;2023-04-26T09:26:37;9.60;56.70
13458;DHT22;6801;53.018;11.560;2023-04-26T09:29:12;9.60;55.50
13458;DHT22;6801;53.018;11.560;2023-04-26T09:31:42;9.60;54.90
13458;DHT22;6801;53.018;11.560;2023-04-26T09:34:09;9.60;55.90
13458;DHT22;6801;53.018;11.560;2023-04-26T09:36:48;9.60;55.30
13458;DHT22;6801;53.018;11.560;2023-04-26T09:39:29;9.60;56.00
13458;DHT22;6801;53.018;11.560;2023-04-26T09:41:58;9.70;55.50
13458;DHT22;6801;53.018;11.560;2023-04-26T09:44:28;9.70;55.70
13458;DHT22;6801;53.018;11.560;2023-04-26T09:47:00;9.70;56.60
13458;DHT22;6801;53.018;11.560;2023-04-26T09:49:27;9.80;55.50
13458;DHT22;6801;53.018;11.560;2023-04-26T09:52:05;9.90;56.20
13458;DHT22;6801;53.018;11.560;2023-04-26T09:54:44;10.00;56.50
13458;DHT22;6801;53.018;11.560;2023-04-26T09:57:13;10.00;56.10
13458;DHT22;6801;53.018;11.560;2023-04-26T09:59:41;10.10;56.00
13458;DHT22;6801;53.018;11.560;2023-04-26T10:02:14;10.10;54.90
13458;DHT22;6801;53.018;11.560;2023-04-26T10:04:43;10.10;54.70
13458;DHT22;6801;53.018;11.560;2023-04-26T10:07:14;10.10;52.60
13458;DHT22;6801;53.018;11.560;2023-04-26T10:09:42;10.20;54.50
13458;DHT22;6801;53.018;11.560;2023-04-26T10:12:10;10.30;54.20
13458;DHT22;6801;53.018;11.560;2023-04-26T10:14:37;10.30;54.80
13458;DHT22;6801;53.018;11.560;2023-04-26T10:17:05;10.40;54.10
13458;DHT22;6801;53.018;11.560;2023-04-26T10:19:32;10.40;54.20
13458;DHT22;6801;53.018;11.560;2023-04-26T10:22:05;10.40;54.50
13458;DHT22;6801;53.018;11.560;2023-04-26T10:24:35;10.40;53.00
13458;DHT22;6801;53.018;11.560;2023-04-26T10:27:03;10.30;52.50
13458;DHT22;6801;53.018;11.560;2023-04-26T10:30:04;10.30;52.90
13458;DHT22;6801;53.018;11.560;2023-04-26T10:36:08;10.30;53.60
13458;DHT22;6801;53.018;11.560;2023-04-26T10:38:37;10.40;53.80
13458;DHT22;6801;53.018;11.560;2023-04-26T10:41:28;10.40;53.20
13458;DHT22;6801;53.018;11.560;2023-04-26T10:43:56;10.40;52.90
13458;DHT22;6801;53.018;11.560;2023-04-26T10:46:35;10.40;53.00
13458;DHT22;6801;53.018;11.560;2023-04-26T10:49:12;10.50;53.80
13458;DHT22;6801;53.018;11.560;2023-04-26T10:51:40;10.50;53.00
13458;DHT22;6801;53.018;11.560;2023-04-26T10:54:08;10.50;51.50
13458;DHT22;6801;53.018;11.560;2023-04-26T10:56:57;10.50;52.20
13458;DHT22;6801;53.018;11.560;2023-04-26T10:59:24;10.50;52.50
13458;DHT22;6801;53.018;11.560;2023-04-26T11:01:51;10.50;52.20
13458;DHT22;6801;53.018;11.560;2023-04-26T11:04:18;10.50;52.80
13458;DHT22;6801;53.018;11.560;2023-04-26T11:06:49;10.60;52.50
13458;DHT22;6801;53.018;11.560;2023-04-26T11:09:32;10.60;52.20
13458;DHT22;6801;53.018;11.560;2023-04-26T11:12:00;10.60;52.10
13458;DHT22;6801;53.018;11.560;2023-04-26T11:14:27;10.70;52.50
13458;DHT22;6801;53.018;11.560;2023-04-26T11:16:55;10.70;52.50
13458;DHT22;6801;53.018;11.560;2023-04-26T11:19:22;10.70;52.30
13458;DHT22;6801;53.018;11.560;2023-04-26T11:21:49;10.80;51.40
13458;DHT22;6801;53.018;11.560;2023-04-26T11:24:16;10.70;50.00
13458;DHT22;6801;53.018;11.560;2023-04-26T11:26:50;10.80;51.40
13458;DHT22;6801;53.018;11.560;2023-04-26T11:29:19;10.90;52.20
13458;DHT22;6801;53.018;11.560;2023-04-26T11:31:52;10.90;52.30
13458;DHT22;6801;53.018;11.560;2023-04-26T11:34:20;10.90;50.20
13458;DHT22;6801;53.018;11.560;2023-04-26T11:36:50;11.00;50.80
13458;DHT22;6801;53.018;11.560;2023-04-26T11:39:20;11.00;51.20
13458;DHT22;6801;53.018;11.560;2023-04-26T11:41:48;11.10;51.90
13458;DHT22;6801;53.018;11.560;2023-04-26T11:44:19;11.20;52.20
13458;DHT22;6801;53.018;11.560;2023-04-26T11:46:47;11.20;51.50
13458;DHT22;6801;53.018;11.560;2023-04-26T11:49:15;11.30;51.20
13458;DHT22;6801;53.018;11.560;2023-04-26T11:51:46;11.30;51.30
13458;DHT22;6801;53.018;11.560;2023-04-26T11:54:26;11.30;52.00
13458;DHT22;6801;53.018;11.560;2023-04-26T11:56:54;11.30;50.90
13458;DHT22;6801;53.018;11.560;2023-04-26T11:59:24;11.40;51.40
13458;DHT22;6801;53.018;11.560;2023-04-26T12:01:51;11.40;51.80
13458;DHT22;6801;53.018;11.560;2023-04-26T12:04:18;11.40;51.50
13458;DHT22;6801;53.018;11.560;2023-04-26T12:06:46;11.50;51.70
13458;DHT22;6801;53.018;11.560;2023-04-26T12:09:14;11.50;50.90
13458;DHT22;6801;53.018;11.560;2023-04-26T12:11:47;11.60;51.50
13458;DHT22;6801;53.018;11.560;2023-04-26T12:14:15;11.70;50.10
13458;DHT22;6801;53.018;11.560;2023-04-26T12:16:45;11.70;50.60
13458;DHT22;6801;53.018;11.560;2023-04-26T12:19:12;11.80;51.50
13458;DHT22;6801;53.018;11.560;2023-04-26T12:21:40;12.00;51.30
13458;DHT22;6801;53.018;11.560;2023-04-26T12:24:22;12.00;51.20
13458;DHT22;6801;53.018;11.560;2023-04-26T12:26:49;12.10;49.40
13458;DHT22;6801;53.018;11.560;2023-04-26T12:29:16;12.10;49.20
13458;DHT22;6801;53.018;11.560;2023-04-26T12:31:45;12.30;50.70
13458;DHT22;6801;53.018;11.560;2023-04-26T12:34:12;12.30;47.80
13458;DHT22;6801;53.018;11.560;2023-04-26T12:36:40;12.30;48.00
13458;DHT22;6801;53.018;11.560;2023-04-26T12:39:09;12.40;47.70
13458;DHT22;6801;53.018;11.560;2023-04-26T12:41:38;12.40;49.00
13458;DHT22;6801;53.018;11.560;2023-04-26T12:44:05;12.50;47.70
13458;DHT22;6801;53.018;11.560;2023-04-26T12:46:32;12.60;46.20
13458;DHT22;6801;53.018;11.560;2023-04-26T12:49:00;12.60;47.90
13458;DHT22;6801;53.018;11.560;2023-04-26T12:51:28;12.70;47.10
13458;DHT22;6801;53.018;11.560;2023-04-26T12:53:56;12.70;44.00
13458;DHT22;6801;53.018;11.560;2023-04-26T12:56:23;12.60;44.80
13458;DHT22;6801;53.018;11.560;2023-04-26T12:58:50;12.50;46.10
13458;DHT22;6801;53.018;11.560;2023-04-26T13:01:17;12.50;46.70
13458;DHT22;6801;53.018;11.560;2023-04-26T13:03:44;12.50;46.70
13458;DHT22;6801;53.018;11.560;2023-04-26T13:06:12;12.40;44.90
13458;DHT22;6801;53.018;11.560;2023-04-26T13:08:39;12.40;45.50
13458;DHT22;6801;53.018;11.560;2023-04-26T13:11:06;12.30;44.20
13458;DHT22;6801;53.018;11.560;2023-04-26T13:13:33;12.30;46.90
13458;DHT22;6801;53.018;11.560;2023-04-26T13:16:00;12.40;46.70
13458;DHT22;6801;53.018;11.560;2023-04-26T13:18:27;12.40;46.00
13458;DHT22;6801;53.018;11.560;2023-04-26T13:20:54;12.40;47.60
13458;DHT22;6801;53.018;11.560;2023-04-26T13:23:23;12.50;48.40
13458;DHT22;6801;53.018;11.560;2023-04-26T13:25:50;12.50;48.00
13458;DHT22;6801;53.018;11.560;2023-04-26T13:28:17;12.50;48.00
13458;DHT22;6801;53.018;11.560;2023-04-26T13:30:43;12.50;48.20
13458;DHT22;6801;53.018;11.560;2023-04-26T13:33:10;12.50;48.70
13458;DHT22;6801;53.018;11.560;2023-04-26T13:35:38;12.40;46.70
13458;DHT22;6801;53.018;11.560;2023-04-26T13:38:05;12.30;48.30
13458;DHT22;6801;53.018;11.560;2023-04-26T13:40:33;12.30;47.90
13458;DHT22;6801;53.018;11.560;2023-04-26T13:43:02;12.30;48.70
13458;DHT22;6801;53.018;11.560;2023-04-26T13:45:29;12.20;47.50
13458;DHT22;6801;53.018;11.560;2023-04-26T13:47:56;12.30;47.60
13458;DHT22;6801;53.018;11.560;2023-04-26T13:50:23;12.30;47.80
13458;DHT22;6801;53.018;11.560;2023-04-26T13:52:50;12.20;48.30
13458;DHT22;6801;53.018;11.560;2023-04-26T13:55:17;12.20;48.60
13458;DHT22;6801;53.018;11.560;2023-04-26T13:57:45;12.30;48.70
13458;DHT22;6801;53.018;11.560;2023-04-26T14:00:13;12.30;48.70
13458;DHT22;6801;53.018;11.560;2023-04-26T14:02:41;12.30;48.70
13458;DHT22;6801;53.018;11.560;2023-04-26T14:05:08;12.20;48.20
13458;DHT22;6801;53.018;11.560;2023-04-26T14:07:35;12.10;48.30
13458;DHT22;6801;53.018;11.560;2023-04-26T14:10:02;12.10;47.40
13458;DHT22;6801;53.018;11.560;2023-04-26T14:12:29;12.10;48.20
13458;DHT22;6801;53.018;11.560;2023-04-26T14:14:57;12.10;47.30
13458;DHT22;6801;53.018;11.560;2023-04-26T14:17:26;12.00;48.20
13458;DHT22;6801;53.018;11.560;2023-04-26T14:19:55;12.10;48.30
13458;DHT22;6801;53.018;11.560;2023-04-26T14:22:22;12.00;48.60
13458;DHT22;6801;53.018;11.560;2023-04-26T14:24:48;12.00;48.70
13458;DHT22;6801;53.018;11.560;2023-04-26T14:27:16;12.10;49.40
13458;DHT22;6801;53.018;11.560;2023-04-26T14:29:43;12.10;49.80
13458;DHT22;6801;53.018;11.560;2023-04-26T14:32:11;12.20;49.90
13458;DHT22;6801;53.018;11.560;2023-04-26T14:34:38;12.30;49.70
13458;DHT22;6801;53.018;11.560;2023-04-26T14:37:06;12.30;49.80
13458;DHT22;6801;53.018;11.560;2023-04-26T14:39:33;12.30;48.10
13458;DHT22;6801;53.018;11.560;2023-04-26T14:42:00;12.20;46.80
13458;DHT22;6801;53.018;11.560;2023-04-26T14:44:28;12.20;48.60
13458;DHT22;6801;53.018;11.560;2023-04-26T14:46:54;12.20;47.70
13458;DHT22;6801;53.018;11.560;2023-04-26T14:49:23;12.20;47.70
13458;DHT22;6801;53.018;11.560;2023-04-26T14:51:50;12.20;47.00
13458;DHT22;6801;53.018;11.560;2023-04-26T14:54:17;12.20;47.40
13458;DHT22;6801;53.018;11.560;2023-04-26T14:56:44;12.20;48.20
13458;DHT22;6801;53.018;11.560;2023-04-26T14:59:11;12.10;47.00
13458;DHT22;6801;53.018;11.560;2023-04-26T15:01:38;12.00;47.20
13458;DHT22;6801;53.018;11.560;2023-04-26T15:04:05;12.00;48.10
13458;DHT22;6801;53.018;11.560;2023-04-26T15:06:33;12.10;48.70
13458;DHT22;6801;53.018;11.560;2023-04-26T15:09:00;12.00;48.70
13458;DHT22;6801;53.018;11.560;2023-04-26T15:11:27;12.00;48.70
13458;DHT22;6801;53.018;11.560;2023-04-26T15:13:54;12.00;48.20
13458;DHT22;6801;53.018;11.560;2023-04-26T15:16:21;11.90;47.90
13458;DHT22;6801;53.018;11.560;2023-04-26T15:18:48;11.90;48.30
13458;DHT22;6801;53.018;11.560;2023-04-26T15:21:15;11.80;48.10
13458;DHT22;6801;53.018;11.560;2023-04-26T15:23:43;11.90;48.80
13458;DHT22;6801;53.018;11.560;2023-04-26T15:26:11;11.90;48.70
13458;DHT22;6801;53.018;11.560;2023-04-26T15:28:38;11.90;49.00
13458;DHT22;6801;53.018;11.560;2023-04-26T15:31:08;11.90;49.40
13458;DHT22;6801;53.018;11.560;2023-04-26T15:33:35;11.90;49.30
13458;DHT22;6801;53.018;11.560;2023-04-26T15:36:02;11.90;49.10
13458;DHT22;6801;53.018;11.560;2023-04-26T15:38:29;11.90;48.70
13458;DHT22;6801;53.018;11.560;2023-04-26T15:40:58;11.80;48.90
13458;DHT22;6801;53.018;11.560;2023-04-26T15:43:25;11.80;49.20
13458;DHT22;6801;53.018;11.560;2023-04-26T15:45:52;11.80;49.50
13458;DHT22;6801;53.018;11.560;2023-04-26T15:48:19;11.90;49.70
13458;DHT22;6801;53.018;11.560;2023-04-26T15:50:46;11.80;49.50